Time;durP1;ratioP1;P1;durP2;ratioP2;P2;SDS_P1;SDS_P2;PMS_P1;PMS_P2;Temp;Humidity;BMP_temperature;BMP_pressure;BME280_temperature;BME280_humidity;BME280_pressure;Samples;Min_cycle;Max_cycle;Signal;HPM_P1;HPM_P2
2021/01/26 00:00:12;;;;;;;8.23;5.80;;;-4.50;99.90;;;;;;5036316;28;20088;-81
2021/01/26 00:02:39;;;;;;;11.07;6.72;;;-4.50;99.90;;;;;;5035314;28;20103;-80
2021/01/26 00:05:07;;;;;;;12.68;6.90;;;-4.50;99.90;;;;;;5036620;28;20049;-81
2021/01/26 00:07:35;;;;;;;10.20;6.90;;;-4.50;99.90;;;;;;5036604;28;20490;-80
2021/01/26 00:10:01;;;;;;;10.18;7.15;;;-4.50;99.90;;;;;;5035481;28;20076;-80
2021/01/26 00:12:27;;;;;;;15.50;7.03;;;-4.50;99.90;;;;;;5036832;28;20073;-81
2021/01/26 00:14:53;;;;;;;9.57;6.05;;;-4.50;99.90;;;;;;5036729;28;20129;-80
2021/01/26 00:17:20;;;;;;;11.63;6.47;;;-4.50;99.90;;;;;;5035421;28;20568;-80
2021/01/26 00:19:46;;;;;;;12.02;6.38;;;-4.40;99.90;;;;;;5036863;28;20136;-81
2021/01/26 00:22:13;;;;;;;8.90;5.72;;;-4.40;99.90;;;;;;5035404;28;20080;-80
2021/01/26 00:24:39;;;;;;;9.98;5.47;;;-4.50;99.90;;;;;;5036609;28;20119;-81
2021/01/26 00:27:06;;;;;;;9.32;6.13;;;-4.40;99.90;;;;;;5037411;28;20049;-81
2021/01/26 00:29:32;;;;;;;9.27;5.78;;;-4.50;99.90;;;;;;5036777;28;20124;-80
2021/01/26 00:31:59;;;;;;;10.93;6.28;;;-4.40;99.90;;;;;;5035645;28;20057;-81
2021/01/26 00:34:25;;;;;;;12.10;6.30;;;-4.40;99.90;;;;;;5035782;28;20064;-80
2021/01/26 00:36:51;;;;;;;9.90;6.43;;;-4.30;99.90;;;;;;5037148;28;20053;-81
2021/01/26 00:39:18;;;;;;;8.52;5.90;;;-4.30;99.90;;;;;;5038479;28;20095;-80
2021/01/26 00:41:45;;;;;;;9.27;6.15;;;-4.30;99.90;;;;;;5036885;28;20071;-81
2021/01/26 00:44:11;;;;;;;7.35;5.57;;;-4.30;99.90;;;;;;5035753;28;20081;-79
2021/01/26 00:46:37;;;;;;;8.25;5.60;;;-4.30;99.90;;;;;;5033982;28;20053;-79
2021/01/26 00:49:04;;;;;;;8.98;6.07;;;-4.40;99.90;;;;;;5033993;28;20092;-78
2021/01/26 00:51:30;;;;;;;10.18;6.53;;;-4.40;99.90;;;;;;5033728;28;20156;-79
2021/01/26 00:53:56;;;;;;;13.27;6.22;;;-4.30;99.90;;;;;;5033876;28;20076;-79
2021/01/26 00:56:23;;;;;;;9.43;5.80;;;-4.30;99.90;;;;;;5032631;28;20558;-79
2021/01/26 00:58:49;;;;;;;11.38;6.22;;;-4.30;99.90;;;;;;5032699;28;20045;-79
2021/01/26 01:01:15;;;;;;;7.10;5.68;;;-4.40;99.90;;;;;;5035183;28;20076;-78
2021/01/26 01:03:42;;;;;;;9.10;5.75;;;-4.40;99.90;;;;;;5033489;28;20067;-77
2021/01/26 01:06:08;;;;;;;9.00;5.57;;;-4.50;99.90;;;;;;5032616;28;20054;-78
2021/01/26 01:08:34;;;;;;;16.23;6.20;;;-4.60;99.90;;;;;;5032366;28;20079;-78
2021/01/26 01:11:00;;;;;;;8.25;5.85;;;-4.70;99.90;;;;;;5032781;28;20498;-78
2021/01/26 01:13:26;;;;;;;9.93;6.07;;;-4.70;99.90;;;;;;5032205;28;20498;-78
2021/01/26 01:15:53;;;;;;;9.07;6.25;;;-4.80;99.90;;;;;;5033757;28;20053;-78
2021/01/26 01:18:19;;;;;;;7.72;5.57;;;-4.80;99.90;;;;;;5032576;28;20045;-78
2021/01/26 01:20:45;;;;;;;8.60;6.55;;;-4.80;99.90;;;;;;5035890;28;20107;-80
2021/01/26 01:23:12;;;;;;;14.57;7.05;;;-4.90;99.90;;;;;;5034752;28;20136;-79
2021/01/26 01:25:38;;;;;;;12.82;6.75;;;-4.90;99.90;;;;;;5035507;28;20128;-79
2021/01/26 01:28:04;;;;;;;9.43;6.32;;;-5.00;99.90;;;;;;5034148;28;20080;-79
2021/01/26 01:30:33;;;;;;;11.73;7.40;;;-5.00;99.90;;;;;;5034099;28;20080;-79
2021/01/26 01:33:01;;;;;;;10.10;7.00;;;-5.10;99.90;;;;;;5034222;28;20050;-78
2021/01/26 01:35:28;;;;;;;15.35;7.22;;;-5.00;99.90;;;;;;5035194;28;20418;-79
2021/01/26 01:37:54;;;;;;;8.57;6.60;;;-5.10;99.90;;;;;;5034767;28;20053;-78
2021/01/26 01:40:32;;;;;;;11.73;7.28;;;-5.10;99.90;;;;;;5034905;28;20085;-78
2021/01/26 01:42:59;;;;;;;11.95;6.82;;;-5.10;99.90;;;;;;5034091;28;20556;-79
2021/01/26 01:45:27;;;;;;;11.82;6.55;;;-5.10;99.90;;;;;;5033495;28;20045;-78
2021/01/26 01:47:58;;;;;;;9.35;6.78;;;-5.20;99.90;;;;;;5034733;28;20049;-78
2021/01/26 01:50:34;;;;;;;10.07;6.35;;;-5.20;99.90;;;;;;5034410;28;20048;-78
2021/01/26 01:53:18;;;;;;;11.18;7.20;;;-5.20;99.90;;;;;;5033050;28;20096;-78
2021/01/26 01:55:55;;;;;;;12.60;7.28;;;-5.10;99.90;;;;;;5033346;28;20140;-79
2021/01/26 01:58:28;;;;;;;12.55;8.00;;;-5.10;99.90;;;;;;5032890;28;20081;-77
2021/01/26 02:01:01;;;;;;;12.38;8.05;;;-5.10;99.90;;;;;;5033833;28;20049;-78
2021/01/26 02:03:31;;;;;;;15.23;8.27;;;-5.10;99.90;;;;;;5032849;28;20045;-78
2021/01/26 02:06:00;;;;;;;17.65;9.38;;;-5.10;99.90;;;;;;5032628;28;20069;-78
2021/01/26 02:08:43;;;;;;;12.70;7.68;;;-5.00;99.90;;;;;;5033777;28;20072;-78
2021/01/26 02:11:09;;;;;;;14.07;7.63;;;-5.00;99.90;;;;;;5033622;28;20194;-78
2021/01/26 02:13:35;;;;;;;14.45;7.15;;;-5.00;99.90;;;;;;5032426;28;20057;-79
2021/01/26 02:16:04;;;;;;;12.30;7.18;;;-5.00;99.90;;;;;;5033651;28;20089;-79
2021/01/26 02:18:45;;;;;;;10.63;7.10;;;-5.00;99.90;;;;;;5032151;28;20049;-78
2021/01/26 02:21:36;;;;;;;13.65;7.78;;;-4.90;99.90;;;;;;5032989;28;20049;-79
2021/01/26 02:24:16;;;;;;;11.98;7.50;;;-4.90;99.90;;;;;;5033326;28;20077;-78
2021/01/26 02:27:01;;;;;;;15.00;8.57;;;-4.90;99.90;;;;;;5033262;28;20051;-78
2021/01/26 02:29:44;;;;;;;11.20;7.80;;;-4.80;99.90;;;;;;5032816;28;20077;-79
2021/01/26 02:32:34;;;;;;;13.32;8.35;;;-4.60;99.90;;;;;;5036996;28;20050;-78
2021/01/26 02:35:28;;;;;;;13.65;7.50;;;-4.60;99.90;;;;;;5035754;28;20061;-78
2021/01/26 02:38:19;;;;;;;10.57;7.03;;;-4.40;99.90;;;;;;5037110;28;20203;-78
2021/01/26 02:40:50;;;;;;;14.63;7.95;;;-4.30;99.90;;;;;;5038091;28;20053;-78
2021/01/26 02:43:49;;;;;;;15.02;8.82;;;-4.20;99.90;;;;;;5035619;28;20057;-78
2021/01/26 02:46:41;;;;;;;13.23;7.88;;;-4.10;99.90;;;;;;5035534;28;20049;-78
2021/01/26 02:49:16;;;;;;;11.52;8.35;;;-4.00;99.90;;;;;;5035472;28;20049;-78
2021/01/26 02:51:51;;;;;;;15.52;8.65;;;-4.00;99.90;;;;;;5035346;28;20124;-78
2021/01/26 02:54:29;;;;;;;15.00;8.55;;;-4.00;99.90;;;;;;5035040;28;20077;-78
2021/01/26 02:57:16;;;;;;;14.32;8.52;;;-4.00;99.90;;;;;;5036852;28;20055;-79
2021/01/26 03:00:07;;;;;;;16.20;8.63;;;-3.90;99.90;;;;;;5037021;28;20471;-78
2021/01/26 03:02:43;;;;;;;14.90;8.52;;;-3.80;99.90;;;;;;5036452;28;20080;-78
2021/01/26 03:05:14;;;;;;;14.43;9.27;;;-3.70;99.90;;;;;;5036752;28;20073;-79
2021/01/26 03:07:47;;;;;;;13.48;8.27;;;-3.60;99.90;;;;;;5037952;28;20589;-80
2021/01/26 03:10:18;;;;;;;12.95;8.18;;;-3.50;99.90;;;;;;5038653;28;20211;-79
2021/01/26 03:12:54;;;;;;;15.10;8.95;;;-3.50;99.90;;;;;;5038014;28;20084;-80
2021/01/26 03:15:26;;;;;;;14.88;8.02;;;-3.40;99.90;;;;;;5037582;28;20056;-79
2021/01/26 03:17:56;;;;;;;15.15;8.70;;;-3.30;99.90;;;;;;5037267;28;20084;-79
2021/01/26 03:20:44;;;;;;;14.85;8.35;;;-3.30;99.90;;;;;;5037958;28;20433;-79
2021/01/26 03:23:16;;;;;;;16.63;8.68;;;-3.20;99.90;;;;;;5037025;28;20053;-78
2021/01/26 03:25:51;;;;;;;15.38;8.75;;;-3.20;99.90;;;;;;5037634;28;20103;-78
2021/01/26 03:28:19;;;;;;;11.70;8.60;;;-3.20;99.90;;;;;;5037616;28;20059;-79
2021/01/26 03:30:48;;;;;;;18.27;8.43;;;-3.10;99.90;;;;;;5037400;28;20140;-79
2021/01/26 03:33:37;;;;;;;13.75;9.25;;;-3.00;99.90;;;;;;5036697;28;20060;-78
2021/01/26 03:36:05;;;;;;;13.98;9.20;;;-3.10;99.90;;;;;;5038319;28;20056;-79
2021/01/26 03:38:33;;;;;;;15.90;9.07;;;-3.00;99.90;;;;;;5036427;28;20144;-79
2021/01/26 03:41:06;;;;;;;12.60;8.82;;;-3.00;99.90;;;;;;5035668;28;20085;-79
2021/01/26 03:43:33;;;;;;;16.02;9.43;;;-3.00;99.90;;;;;;5034976;28;20445;-78
2021/01/26 03:46:18;;;;;;;15.43;9.02;;;-3.00;99.90;;;;;;5034632;28;20131;-79
2021/01/26 03:49:22;;;;;;;17.75;9.90;;;-3.00;99.90;;;;;;5036045;28;20065;-79
2021/01/26 03:52:26;;;;;;;13.05;8.57;;;-2.90;99.90;;;;;;5036661;28;20461;-79
2021/01/26 03:55:04;;;;;;;15.60;8.70;;;-2.80;99.90;;;;;;5036382;28;20095;-80
2021/01/26 03:57:40;;;;;;;12.40;8.30;;;-2.60;99.90;;;;;;5036015;28;20510;-79
2021/01/26 04:00:19;;;;;;;16.85;11.27;;;-2.60;99.90;;;;;;5036162;28;20414;-79
2021/01/26 04:02:58;;;;;;;29.50;13.90;;;-2.50;99.90;;;;;;5036327;28;20092;-80
2021/01/26 04:05:27;;;;;;;22.55;15.07;;;-2.30;99.90;;;;;;5036120;28;20448;-80
2021/01/26 04:08:12;;;;;;;24.60;16.10;;;-2.10;99.90;;;;;;5035204;28;20124;-79
2021/01/26 04:10:57;;;;;;;23.08;14.70;;;-1.90;99.90;;;;;;5034931;28;20555;-80
2021/01/26 04:13:30;;;;;;;21.50;13.57;;;-1.70;99.90;;;;;;5035879;28;20045;-79
2021/01/26 04:15:59;;;;;;;17.85;12.23;;;-1.50;99.90;;;;;;5037666;28;20527;-80
2021/01/26 04:18:31;;;;;;;17.67;12.35;;;-1.40;99.90;;;;;;5034816;28;20050;-80
2021/01/26 04:20:58;;;;;;;17.02;12.20;;;-1.30;99.90;;;;;;5036288;28;20092;-80
2021/01/26 04:23:26;;;;;;;17.17;12.27;;;-1.20;99.90;;;;;;5034698;28;20506;-80
2021/01/26 04:25:52;;;;;;;17.00;12.63;;;-1.10;99.90;;;;;;5036023;28;20136;-80
2021/01/26 04:28:38;;;;;;;18.63;12.93;;;-1.00;99.90;;;;;;5035883;28;20076;-80
2021/01/26 04:31:06;;;;;;;17.30;12.40;;;-1.00;99.90;;;;;;5034491;28;20084;-80
2021/01/26 04:33:36;;;;;;;17.10;12.70;;;-1.00;99.90;;;;;;5034457;28;20514;-79
2021/01/26 04:36:04;;;;;;;18.65;13.25;;;-0.90;99.90;;;;;;5035871;28;20052;-80
2021/01/26 04:38:30;;;;;;;17.65;11.98;;;-0.90;99.90;;;;;;5034047;28;20059;-80
2021/01/26 04:41:04;;;;;;;14.85;11.40;;;-0.90;99.90;;;;;;5034808;28;20049;-80
2021/01/26 04:44:00;;;;;;;14.25;10.73;;;-0.80;99.90;;;;;;5034291;28;20057;-80
2021/01/26 04:46:57;;;;;;;13.30;10.10;;;-0.80;99.90;;;;;;5034681;28;20046;-80
2021/01/26 04:49:30;;;;;;;12.65;9.77;;;-0.60;99.90;;;;;;5034523;28;20107;-80
2021/01/26 04:52:33;;;;;;;13.27;10.20;;;-0.60;99.90;;;;;;5035152;28;20045;-80
2021/01/26 04:55:15;;;;;;;12.43;9.93;;;-0.60;99.90;;;;;;5040730;28;20070;-81
2021/01/26 04:58:05;;;;;;;11.02;8.70;;;-0.50;99.90;;;;;;5041047;28;20050;-80
2021/01/26 05:00:58;;;;;;;12.93;9.25;;;-0.40;99.90;;;;;;5034535;28;20507;-80
2021/01/26 05:03:40;;;;;;;11.98;9.10;;;-0.40;99.90;;;;;;5037796;28;20109;-80
2021/01/26 05:06:11;;;;;;;15.43;9.75;;;-0.40;99.90;;;;;;5036161;28;20506;-79
2021/01/26 05:08:42;;;;;;;11.82;9.25;;;-0.30;99.90;;;;;;5035679;28;20069;-79
2021/01/26 05:11:15;;;;;;;10.63;8.60;;;-0.30;99.90;;;;;;5036100;28;20054;-80
2021/01/26 05:13:45;;;;;;;11.02;9.68;;;-0.30;99.90;;;;;;5037405;28;20056;-79
2021/01/26 05:16:26;;;;;;;12.05;8.73;;;-0.30;99.90;;;;;;5036134;28;20113;-79
2021/01/26 05:19:13;;;;;;;10.10;8.68;;;-0.40;99.90;;;;;;5037512;28;20057;-79
2021/01/26 05:21:46;;;;;;;9.98;8.65;;;-0.40;99.90;;;;;;5036898;28;20057;-79
2021/01/26 05:24:23;;;;;;;9.75;8.73;;;-0.50;99.90;;;;;;5036973;28;20056;-78
2021/01/26 05:26:49;;;;;;;9.85;8.85;;;-0.50;99.90;;;;;;5037285;28;20443;-79
2021/01/26 05:29:16;;;;;;;9.70;8.02;;;-0.50;99.90;;;;;;5035042;28;20049;-78
2021/01/26 05:31:47;;;;;;;10.15;8.50;;;-0.40;99.90;;;;;;5036176;28;20072;-79
2021/01/26 05:34:15;;;;;;;8.80;7.63;;;-0.40;99.90;;;;;;5034726;28;20048;-79
2021/01/26 05:36:44;;;;;;;9.77;8.70;;;-0.40;99.90;;;;;;5034799;28;20421;-79
2021/01/26 05:39:35;;;;;;;7.95;7.15;;;-0.40;99.90;;;;;;5034904;28;20567;-78
2021/01/26 05:42:01;;;;;;;7.15;6.45;;;-0.30;99.90;;;;;;5035793;28;20077;-79
2021/01/26 05:44:27;;;;;;;7.78;6.70;;;-0.30;99.90;;;;;;5034086;28;20099;-79
2021/01/26 05:46:54;;;;;;;7.68;6.70;;;-0.30;99.90;;;;;;5036006;28;20049;-79
2021/01/26 05:49:35;;;;;;;7.22;6.32;;;-0.20;99.90;;;;;;5035364;28;20045;-79
2021/01/26 05:52:03;;;;;;;7.47;6.32;;;-0.20;99.90;;;;;;5035743;28;20042;-78
2021/01/26 05:54:33;;;;;;;7.10;6.40;;;-0.20;99.90;;;;;;5035772;28;20547;-79
2021/01/26 05:57:00;;;;;;;6.40;5.80;;;-0.20;99.90;;;;;;5037740;28;20041;-79
2021/01/26 05:59:33;;;;;;;6.75;6.10;;;-0.20;99.90;;;;;;5035373;28;20077;-78
2021/01/26 06:02:15;;;;;;;7.57;6.40;;;-0.20;99.90;;;;;;5034955;28;20084;-79
2021/01/26 06:04:43;;;;;;;7.40;6.60;;;-0.10;99.90;;;;;;5036460;28;20456;-79
2021/01/26 06:07:22;;;;;;;6.85;6.20;;;0.00;99.90;;;;;;5038995;28;20049;-79
2021/01/26 06:09:51;;;;;;;7.32;6.53;;;0.00;99.90;;;;;;5039991;28;20041;-79
2021/01/26 06:12:24;;;;;;;8.27;6.80;;;0.10;99.90;;;;;;5037897;28;20081;-79
2021/01/26 06:14:57;;;;;;;6.85;6.07;;;0.10;99.90;;;;;;5038135;28;20517;-79
2021/01/26 06:17:23;;;;;;;;;;;0.10;99.90;;;;;;5038206;28;20115;-78
2021/01/26 06:20:23;;;;;;;8.10;7.25;;;0.10;99.90;;;;;;5038782;28;19921;-80
2021/01/26 06:22:51;;;;;;;8.20;7.30;;;0.10;99.90;;;;;;5040612;28;20053;-79
2021/01/26 06:25:28;;;;;;;9.55;6.18;;;0.10;99.90;;;;;;5039963;28;20056;-79
2021/01/26 06:28:13;;;;;;;7.53;6.50;;;0.10;99.90;;;;;;5038039;28;20049;-79
2021/01/26 06:31:02;;;;;;;8.05;6.15;;;0.20;99.90;;;;;;5039391;28;20418;-79
2021/01/26 06:33:47;;;;;;;7.35;6.15;;;0.20;99.90;;;;;;5037809;28;20403;-79
2021/01/26 06:36:31;;;;;;;6.28;5.68;;;0.20;99.90;;;;;;5038919;28;20080;-80
2021/01/26 06:39:20;;;;;;;7.47;6.57;;;0.20;99.90;;;;;;5038922;28;20049;-79
2021/01/26 06:41:58;;;;;;;6.55;5.75;;;0.20;99.90;;;;;;5037347;28;20084;-78
2021/01/26 06:44:37;;;;;;;7.05;6.35;;;0.30;99.90;;;;;;5034952;28;20103;-80
2021/01/26 06:47:21;;;;;;;7.15;6.15;;;0.30;99.90;;;;;;5035487;28;20041;-80
2021/01/26 06:50:01;;;;;;;7.15;6.13;;;0.30;99.90;;;;;;5039120;28;20061;-79
2021/01/26 06:52:49;;;;;;;8.25;5.85;;;0.40;99.90;;;;;;5037314;28;20111;-79
2021/01/26 06:55:43;;;;;;;7.25;6.25;;;0.40;99.90;;;;;;5037862;28;20494;-79
2021/01/26 06:58:34;;;;;;;6.82;6.13;;;0.40;99.90;;;;;;5038421;28;20136;-79
2021/01/26 07:01:32;;;;;;;7.93;6.95;;;0.40;99.90;;;;;;5036484;28;20093;-79
2021/01/26 07:04:20;;;;;;;8.32;7.10;;;0.40;99.90;;;;;;5020374;28;20050;-79
2021/01/26 07:07:07;;;;;;;6.90;6.30;;;0.50;99.90;;;;;;5019528;28;20485;-79
2021/01/26 07:10:11;;;;;;;10.70;6.80;;;0.50;99.90;;;;;;5019047;28;20046;-79
2021/01/26 07:13:06;;;;;;;7.85;7.05;;;0.50;99.90;;;;;;5018160;28;20050;-80
2021/01/26 07:15:42;;;;;;;8.07;6.43;;;0.50;99.90;;;;;;5019820;28;20085;-80
2021/01/26 07:18:21;;;;;;;7.95;6.88;;;0.50;99.90;;;;;;5020792;28;20497;-79
2021/01/26 07:21:13;;;;;;;8.40;6.45;;;0.40;99.90;;;;;;5026723;28;20132;-79
2021/01/26 07:23:46;;;;;;;8.27;7.18;;;0.40;99.90;;;;;;5025578;28;20413;-79
2021/01/26 07:26:37;;;;;;;7.03;6.32;;;0.40;99.90;;;;;;5021513;28;20089;-79
2021/01/26 07:29:24;;;;;;;6.82;6.10;;;0.40;99.90;;;;;;5023412;28;20236;-79
2021/01/26 07:32:29;;;;;;;6.70;5.72;;;0.40;99.90;;;;;;5024740;28;20088;-78
2021/01/26 07:35:01;;;;;;;6.70;5.90;;;0.40;99.90;;;;;;4999378;28;20082;-80
2021/01/26 07:37:34;;;;;;;7.60;6.43;;;0.40;99.90;;;;;;5005839;28;20084;-79
2021/01/26 07:40:18;;;;;;;13.80;7.78;;;0.40;99.90;;;;;;5027356;28;20096;-78
2021/01/26 07:43:03;;;;;;;;;;;0.30;99.90;;;;;;5033206;28;20085;-79
2021/01/26 07:45:36;;;;;;;8.68;6.93;;;0.30;99.90;;;;;;5038084;28;20020;-79
2021/01/26 07:48:15;;;;;;;7.13;6.15;;;0.30;99.90;;;;;;5036721;28;20050;-79
2021/01/26 07:50:49;;;;;;;7.53;5.95;;;0.30;99.90;;;;;;5037865;28;20092;-79
2021/01/26 07:53:47;;;;;;;18.25;13.88;;;0.40;99.90;;;;;;5036594;28;20516;-79
2021/01/26 07:56:28;;;;;;;12.05;10.07;;;0.40;99.90;;;;;;5038427;28;20076;-79
2021/01/26 07:58:55;;;;;;;14.73;12.75;;;0.40;99.90;;;;;;5037721;28;20505;-79
2021/01/26 08:01:25;;;;;;;11.90;8.90;;;0.40;99.90;;;;;;5037959;28;20088;-79
2021/01/26 08:03:53;;;;;;;9.68;6.90;;;0.50;99.90;;;;;;5037688;28;20069;-79
2021/01/26 08:06:40;;;;;;;7.70;6.10;;;0.50;99.90;;;;;;5037303;28;20109;-79
2021/01/26 08:09:18;;;;;;;6.43;5.47;;;0.60;99.90;;;;;;5038389;28;20050;-79
2021/01/26 08:11:58;;;;;;;7.03;6.32;;;0.60;99.90;;;;;;5036499;28;20452;-79
2021/01/26 08:14:30;;;;;;;4.70;4.30;;;0.60;99.90;;;;;;5034588;28;20108;-78
2021/01/26 08:17:00;;;;;;;6.10;5.03;;;0.70;99.90;;;;;;5027492;28;20497;-79
2021/01/26 08:19:48;;;;;;;4.80;4.40;;;0.80;99.90;;;;;;5028177;28;20777;-80
2021/01/26 08:22:30;;;;;;;8.10;7.32;;;0.80;99.90;;;;;;5032667;28;20045;-79
2021/01/26 08:25:12;;;;;;;6.50;3.80;;;0.80;99.90;;;;;;5036948;28;20049;-79
2021/01/26 08:27:38;;;;;;;3.28;3.08;;;0.90;99.90;;;;;;5037588;28;20071;-79
2021/01/26 08:30:09;;;;;;;3.28;3.05;;;0.90;99.90;;;;;;5038047;28;20107;-80
2021/01/26 08:32:35;;;;;;;4.68;4.00;;;1.00;99.90;;;;;;5037457;28;20049;-80
2021/01/26 08:35:13;;;;;;;4.30;3.90;;;1.10;99.90;;;;;;5039261;28;20053;-80
2021/01/26 08:37:42;;;;;;;2.58;2.47;;;1.00;99.90;;;;;;5039033;28;20049;-80
2021/01/26 08:40:16;;;;;;;3.97;2.83;;;1.10;99.90;;;;;;5037297;28;20072;-80
2021/01/26 08:42:42;;;;;;;3.30;3.10;;;1.10;99.90;;;;;;5037228;28;20513;-80
2021/01/26 08:45:17;;;;;;;3.30;3.00;;;1.10;99.90;;;;;;5038669;28;20495;-79
2021/01/26 08:48:09;;;;;;;5.80;3.45;;;1.20;99.90;;;;;;5038167;28;20080;-79
2021/01/26 08:50:40;;;;;;;9.48;3.70;;;1.30;99.90;;;;;;5037605;28;20057;-80
2021/01/26 08:53:21;;;;;;;3.53;3.30;;;1.40;99.90;;;;;;5038167;28;20414;-80
2021/01/26 08:55:51;;;;;;;6.55;2.63;;;1.40;99.90;;;;;;5037597;28;20049;-80
2021/01/26 08:58:39;;;;;;;3.60;3.30;;;1.50;99.90;;;;;;5037570;28;20084;-80
2021/01/26 09:01:09;;;;;;;8.10;3.10;;;1.60;99.90;;;;;;5043570;28;20049;-79
2021/01/26 09:03:42;;;;;;;3.40;3.20;;;1.60;99.90;;;;;;5043492;28;20152;-80
2021/01/26 09:06:41;;;;;;;2.40;2.15;;;1.60;99.90;;;;;;5047386;28;20052;-79
2021/01/26 09:09:31;;;;;;;3.25;2.42;;;1.50;99.90;;;;;;5034271;28;20095;-79
2021/01/26 09:12:01;;;;;;;5.68;5.15;;;1.50;99.90;;;;;;5031826;28;20051;-79
2021/01/26 09:14:46;;;;;;;3.72;3.15;;;1.50;99.90;;;;;;5034364;28;20118;-79
2021/01/26 09:17:17;;;;;;;2.25;2.05;;;1.50;99.90;;;;;;5035422;28;20049;-79
2021/01/26 09:19:53;;;;;;;2.75;1.92;;;1.50;99.90;;;;;;5035932;28;20049;-79
2021/01/26 09:22:23;;;;;;;3.13;2.50;;;1.50;99.90;;;;;;5035953;28;20464;-79
2021/01/26 09:25:00;;;;;;;4.07;2.72;;;1.60;99.90;;;;;;5035605;28;20045;-79
2021/01/26 09:27:30;;;;;;;2.97;2.63;;;1.70;99.90;;;;;;5036326;28;20541;-79
2021/01/26 09:30:22;;;;;;;2.65;2.10;;;1.70;99.90;;;;;;5035747;28;20045;-80
2021/01/26 09:33:21;;;;;;;2.10;2.00;;;1.80;99.90;;;;;;5034991;28;20042;-79
2021/01/26 09:35:49;;;;;;;2.28;2.10;;;1.90;99.90;;;;;;5033291;28;20072;-79
2021/01/26 09:38:17;;;;;;;7.43;2.72;;;2.10;99.90;;;;;;5036736;28;20050;-80
2021/01/26 09:41:06;;;;;;;2.00;1.90;;;2.20;99.90;;;;;;5038265;28;20045;-79
2021/01/26 09:43:38;;;;;;;2.15;2.00;;;2.20;99.90;;;;;;5032882;28;20112;-79
2021/01/26 09:46:23;;;;;;;3.38;2.58;;;2.20;99.90;;;;;;5037864;28;20085;-79
2021/01/26 09:48:53;;;;;;;4.03;2.28;;;2.30;99.90;;;;;;5038975;28;20545;-80
2021/01/26 09:51:25;;;;;;;2.22;2.13;;;2.30;99.90;;;;;;5032835;28;20050;-79
2021/01/26 09:54:01;;;;;;;6.45;1.83;;;2.40;99.90;;;;;;5029177;28;20102;-80
2021/01/26 09:56:29;;;;;;;2.92;2.00;;;2.40;99.90;;;;;;5026520;28;20537;-80
2021/01/26 09:58:56;;;;;;;3.28;2.10;;;2.50;99.90;;;;;;5023479;28;20041;-80
2021/01/26 10:01:22;;;;;;;1.90;1.80;;;2.50;99.90;;;;;;5028201;28;20073;-81
2021/01/26 10:03:54;;;;;;;4.65;1.83;;;2.50;99.90;;;;;;5027665;28;20042;-80
2021/01/26 10:06:21;;;;;;;1.77;1.67;;;2.50;99.90;;;;;;5035380;28;20123;-80
2021/01/26 10:08:47;;;;;;;2.30;2.10;;;2.50;99.90;;;;;;5039557;28;20486;-80
2021/01/26 10:11:18;;;;;;;2.33;2.20;;;2.50;99.90;;;;;;5037670;28;20490;-79
2021/01/26 10:13:48;;;;;;;1.80;1.70;;;2.50;99.90;;;;;;5037837;28;20050;-80
2021/01/26 10:16:42;;;;;;;1.65;1.55;;;2.70;99.90;;;;;;5039452;28;20089;-80
2021/01/26 10:19:34;;;;;;;2.60;2.00;;;2.80;99.90;;;;;;5039929;28;20119;-80
2021/01/26 10:22:11;;;;;;;2.25;2.00;;;2.90;99.90;;;;;;5040304;28;20425;-80
2021/01/26 10:24:38;;;;;;;2.78;1.73;;;3.00;99.90;;;;;;5046978;28;20073;-81
2021/01/26 10:27:11;;;;;;;2.30;1.65;;;3.10;99.90;;;;;;5047275;28;20449;-81
2021/01/26 10:29:42;;;;;;;2.83;1.50;;;3.10;99.90;;;;;;5044973;28;20414;-80
2021/01/26 10:32:12;;;;;;;2.65;1.58;;;3.30;99.90;;;;;;5039598;28;20156;-81
2021/01/26 10:34:42;;;;;;;9.55;6.28;;;3.20;99.90;;;;;;5045421;28;20225;-81
2021/01/26 10:37:23;;;;;;;12.32;7.93;;;3.20;99.90;;;;;;5044560;28;20045;-81
2021/01/26 10:40:18;;;;;;;10.30;6.88;;;3.30;99.90;;;;;;5044479;28;20053;-80
2021/01/26 10:43:30;;;;;;;3.28;2.15;;;3.30;99.90;;;;;;5046107;28;20076;-81
2021/01/26 10:45:57;;;;;;;2.53;2.30;;;3.50;99.90;;;;;;5043489;28;20046;-80
2021/01/26 10:48:28;;;;;;;1.92;1.83;;;3.50;99.90;;;;;;5045911;28;20053;-80
2021/01/26 10:51:07;;;;;;;3.22;2.00;;;3.50;99.90;;;;;;5044493;28;20064;-80
2021/01/26 10:53:44;;;;;;;1.42;1.33;;;3.30;99.90;;;;;;5049760;28;20041;-80
2021/01/26 10:56:11;;;;;;;3.17;1.67;;;3.20;99.90;;;;;;5047737;28;20053;-80
2021/01/26 10:58:40;;;;;;;2.50;2.00;;;3.30;99.90;;;;;;5043697;28;20057;-80
2021/01/26 11:01:07;;;;;;;4.57;2.05;;;3.20;99.90;;;;;;5047873;28;20049;-80
2021/01/26 11:03:34;;;;;;;2.88;2.13;;;3.10;99.90;;;;;;5042467;28;20057;-80
2021/01/26 11:06:02;;;;;;;2.10;1.98;;;3.20;99.90;;;;;;5036693;28;20042;-81
2021/01/26 11:08:28;;;;;;;3.17;1.80;;;3.10;99.90;;;;;;5036896;28;20137;-81
2021/01/26 11:10:56;;;;;;;1.67;1.58;;;3.00;99.90;;;;;;5036829;28;20045;-80
2021/01/26 11:13:22;;;;;;;3.38;1.90;;;3.00;99.90;;;;;;5035734;28;20048;-81
2021/01/26 11:15:48;;;;;;;2.60;1.20;;;2.90;99.90;;;;;;5038201;28;20099;-81
2021/01/26 11:18:15;;;;;;;0.90;0.90;;;3.00;99.90;;;;;;5038079;28;20429;-81
2021/01/26 11:20:42;;;;;;;2.35;1.35;;;2.80;99.90;;;;;;5038873;28;20498;-81
2021/01/26 11:23:09;;;;;;;3.17;1.40;;;2.90;99.90;;;;;;5039111;28;20115;-81
2021/01/26 11:25:36;;;;;;;1.70;1.42;;;2.90;99.90;;;;;;5037401;28;20132;-81
2021/01/26 11:28:03;;;;;;;1.20;1.10;;;2.90;99.90;;;;;;5037902;28;20081;-81
2021/01/26 11:30:31;;;;;;;2.65;1.38;;;3.00;99.90;;;;;;5038239;28;20068;-82
2021/01/26 11:32:58;;;;;;;1.45;0.93;;;2.90;99.90;;;;;;5036391;28;20464;-81
2021/01/26 11:35:26;;;;;;;1.60;1.10;;;2.90;99.90;;;;;;5037865;28;20050;-82
2021/01/26 11:37:54;;;;;;;1.60;1.50;;;2.80;99.90;;;;;;5038270;28;20060;-82
2021/01/26 11:40:22;;;;;;;5.13;1.70;;;2.80;99.90;;;;;;5038007;28;20144;-81
2021/01/26 11:42:48;;;;;;;1.67;1.58;;;2.70;99.90;;;;;;5036351;28;20103;-82
2021/01/26 11:45:19;;;;;;;1.45;1.35;;;2.60;99.90;;;;;;5035859;28;20494;-81
2021/01/26 11:47:46;;;;;;;7.20;1.45;;;2.50;99.90;;;;;;5037809;28;20069;-82
2021/01/26 11:50:14;;;;;;;1.05;1.05;;;2.40;99.90;;;;;;5037062;28;20084;-82
2021/01/26 11:52:41;;;;;;;0.90;0.90;;;2.40;99.90;;;;;;5037723;28;20065;-82
2021/01/26 11:55:17;;;;;;;1.60;1.50;;;2.40;99.90;;;;;;5036314;28;20590;-82
2021/01/26 11:57:46;;;;;;;2.80;2.10;;;2.30;99.90;;;;;;5037038;28;20072;-81
2021/01/26 12:00:15;;;;;;;2.03;1.92;;;2.30;99.90;;;;;;5034980;28;20080;-82
2021/01/26 12:02:41;;;;;;;1.80;1.70;;;2.30;99.90;;;;;;5033273;28;20045;-80
2021/01/26 12:05:08;;;;;;;1.20;1.20;;;2.40;99.90;;;;;;5035172;28;20045;-81
2021/01/26 12:07:35;;;;;;;2.00;1.90;;;2.30;99.90;;;;;;5034593;28;20053;-82
2021/01/26 12:10:02;;;;;;;2.28;1.88;;;2.20;99.90;;;;;;5035873;28;20107;-82
2021/01/26 12:12:28;;;;;;;5.55;3.08;;;2.10;99.90;;;;;;5035563;28;20046;-82
2021/01/26 12:14:55;;;;;;;2.05;1.73;;;2.00;99.90;;;;;;5037456;28;20052;-83
2021/01/26 12:17:21;;;;;;;1.50;1.40;;;2.10;99.90;;;;;;5037717;28;20076;-83
2021/01/26 12:19:47;;;;;;;1.52;1.42;;;2.30;99.90;;;;;;5038352;28;20053;-82
2021/01/26 12:22:14;;;;;;;1.38;1.38;;;2.40;99.90;;;;;;5037269;28;20120;-82
2021/01/26 12:24:40;;;;;;;2.83;1.23;;;2.50;99.90;;;;;;5036835;28;20053;-82
2021/01/26 12:27:06;;;;;;;3.70;1.30;;;2.60;99.90;;;;;;5038002;28;20081;-82
2021/01/26 12:29:33;;;;;;;1.50;0.98;;;2.60;99.90;;;;;;5036368;28;20045;-82
2021/01/26 12:31:59;;;;;;;1.27;1.00;;;2.80;99.90;;;;;;5037755;28;20103;-82
2021/01/26 12:34:26;;;;;;;2.65;1.70;;;3.00;99.90;;;;;;5036489;28;20060;-82
2021/01/26 12:36:53;;;;;;;1.27;1.27;;;3.10;99.90;;;;;;5036300;28;20061;-82
2021/01/26 12:39:20;;;;;;;0.75;0.75;;;3.10;99.90;;;;;;5037050;28;20049;-82
2021/01/26 12:41:47;;;;;;;0.85;0.85;;;3.20;99.90;;;;;;5038088;28;20050;-82
2021/01/26 12:44:13;;;;;;;0.80;0.80;;;3.30;99.90;;;;;;5037678;28;20057;-82
2021/01/26 12:46:39;;;;;;;0.88;0.88;;;3.40;99.90;;;;;;5038557;28;20057;-82
2021/01/26 12:49:07;;;;;;;0.95;0.82;;;3.60;99.90;;;;;;5036248;28;20136;-82
2021/01/26 12:51:33;;;;;;;1.02;1.02;;;3.50;99.90;;;;;;5037672;28;20085;-82
2021/01/26 12:53:59;;;;;;;0.90;0.90;;;3.50;99.90;;;;;;5038518;28;20099;-82
2021/01/26 12:56:25;;;;;;;1.00;1.00;;;3.30;99.90;;;;;;5037791;28;20111;-82
2021/01/26 12:58:51;;;;;;;1.25;1.15;;;3.40;99.90;;;;;;5035530;28;20545;-81
2021/01/26 13:01:18;;;;;;;0.85;0.85;;;3.40;99.90;;;;;;5036013;28;20413;-82
2021/01/26 13:03:44;;;;;;;1.55;0.70;;;3.30;99.90;;;;;;5037901;28;20053;-82
2021/01/26 13:06:10;;;;;;;0.70;0.70;;;3.40;99.90;;;;;;5039754;28;20049;-82
2021/01/26 13:08:37;;;;;;;0.85;0.85;;;3.40;99.90;;;;;;5038739;28;20577;-81
2021/01/26 13:11:16;;;;;;;2.95;2.10;;;3.20;99.90;;;;;;5039341;28;20051;-82
2021/01/26 13:13:44;;;;;;;2.28;1.45;;;3.30;99.90;;;;;;5036264;28;20068;-82
2021/01/26 13:16:10;;;;;;;0.90;0.90;;;3.30;99.90;;;;;;5034130;28;20072;-81
2021/01/26 13:18:37;;;;;;;1.90;1.25;;;3.20;99.90;;;;;;5036662;28;20461;-81
2021/01/26 13:21:04;;;;;;;1.63;1.50;;;3.00;99.90;;;;;;5035060;28;20053;-81
2021/01/26 13:23:30;;;;;;;1.67;1.58;;;3.00;99.90;;;;;;5034643;28;20049;-81